sensor_id;sensor_type;location;lat;lon;timestamp;P1;durP1;ratioP1;P2;durP2;ratioP2
9322;SDS011;4700;48.822;9.270;2023-08-06T00:23:57;399.07;;;355.27;;
9322;SDS011;4700;48.822;9.270;2023-08-06T00:37:05;460.97;;;354.10;;
9322;SDS011;4700;48.822;9.270;2023-08-06T01:44:45;382.50;;;336.07;;
9322;SDS011;4700;48.822;9.270;2023-08-06T02:23:38;388.23;;;345.27;;
9322;SDS011;4700;48.822;9.270;2023-08-06T02:26:26;394.27;;;351.37;;
9322;SDS011;4700;48.822;9.270;2023-08-06T02:36:58;388.83;;;345.50;;
9322;SDS011;4700;48.822;9.270;2023-08-06T03:03:01;378.20;;;319.40;;
9322;SDS011;4700;48.822;9.270;2023-08-06T03:16:10;377.97;;;320.67;;
9322;SDS011;4700;48.822;9.270;2023-08-06T03:18:57;363.30;;;270.80;;
9322;SDS011;4700;48.822;9.270;2023-08-06T03:32:06;388.63;;;346.03;;
9322;SDS011;4700;48.822;9.270;2023-08-06T03:34:45;378.20;;;336.50;;
9322;SDS011;4700;48.822;9.270;2023-08-06T03:40:07;384.40;;;342.20;;
9322;SDS011;4700;48.822;9.270;2023-08-06T03:42:53;394.60;;;352.50;;
9322;SDS011;4700;48.822;9.270;2023-08-06T03:45:40;382.80;;;340.70;;
9322;SDS011;4700;48.822;9.270;2023-08-06T04:09:12;363.40;;;245.10;;
9322;SDS011;4700;48.822;9.270;2023-08-06T04:11:58;378.40;;;325.90;;
9322;SDS011;4700;48.822;9.270;2023-08-06T04:14:45;378.05;;;314.13;;
9322;SDS011;4700;48.822;9.270;2023-08-06T04:30:26;371.03;;;282.70;;
9322;SDS011;4700;48.822;9.270;2023-08-06T04:38:24;375.50;;;314.38;;
9322;SDS011;4700;48.822;9.270;2023-08-06T04:43:47;375.70;;;309.20;;
9322;SDS011;4700;48.822;9.270;2023-08-06T04:46:35;374.47;;;322.27;;
9322;SDS011;4700;48.822;9.270;2023-08-06T04:49:29;391.97;;;349.83;;
9322;SDS011;4700;48.822;9.270;2023-08-06T04:52:18;395.17;;;352.97;;
9322;SDS011;4700;48.822;9.270;2023-08-06T04:55:04;376.60;;;335.00;;
9322;SDS011;4700;48.822;9.270;2023-08-06T04:57:51;385.30;;;343.30;;
9322;SDS011;4700;48.822;9.270;2023-08-06T05:00:37;389.90;;;347.80;;
9322;SDS011;4700;48.822;9.270;2023-08-06T05:03:25;392.53;;;350.33;;
9322;SDS011;4700;48.822;9.270;2023-08-06T05:06:13;395.87;;;353.70;;
9322;SDS011;4700;48.822;9.270;2023-08-06T05:08:59;377.13;;;335.53;;
9322;SDS011;4700;48.822;9.270;2023-08-06T05:11:46;386.67;;;344.37;;
9322;SDS011;4700;48.822;9.270;2023-08-06T05:14:31;388.03;;;346.17;;
9322;SDS011;4700;48.822;9.270;2023-08-06T05:19:55;384.37;;;326.67;;
9322;SDS011;4700;48.822;9.270;2023-08-06T05:22:41;376.87;;;323.00;;
9322;SDS011;4700;48.822;9.270;2023-08-06T05:27:53;384.30;;;341.60;;
9322;SDS011;4700;48.822;9.270;2023-08-06T05:30:39;397.07;;;354.17;;
9322;SDS011;4700;48.822;9.270;2023-08-06T05:38:37;434.43;;;317.47;;
9322;SDS011;4700;48.822;9.270;2023-08-06T06:02:07;399.20;;;271.17;;
9322;SDS011;4700;48.822;9.270;2023-08-06T06:18:01;386.53;;;329.13;;
9322;SDS011;4700;48.822;9.270;2023-08-06T06:33:52;388.43;;;344.73;;
9322;SDS011;4700;48.822;9.270;2023-08-06T06:41:50;384.10;;;340.13;;
9322;SDS011;4700;48.822;9.270;2023-08-06T06:49:44;379.80;;;326.23;;
9322;SDS011;4700;48.822;9.270;2023-08-06T06:52:33;390.50;;;348.03;;
9322;SDS011;4700;48.822;9.270;2023-08-06T06:55:23;390.67;;;348.23;;
9322;SDS011;4700;48.822;9.270;2023-08-06T06:58:09;363.17;;;216.10;;
9322;SDS011;4700;48.822;9.270;2023-08-06T07:00:55;380.00;;;336.07;;
9322;SDS011;4700;48.822;9.270;2023-08-06T07:03:46;356.03;;;203.53;;
9322;SDS011;4700;48.822;9.270;2023-08-06T07:06:33;379.63;;;331.10;;
9322;SDS011;4700;48.822;9.270;2023-08-06T07:09:19;381.80;;;331.97;;
9322;SDS011;4700;48.822;9.270;2023-08-06T07:12:06;356.67;;;215.53;;
9322;SDS011;4700;48.822;9.270;2023-08-06T07:14:51;383.87;;;341.33;;
9322;SDS011;4700;48.822;9.270;2023-08-06T07:17:38;380.70;;;337.77;;
9322;SDS011;4700;48.822;9.270;2023-08-06T07:20:25;382.80;;;328.90;;
9322;SDS011;4700;48.822;9.270;2023-08-06T07:23:17;358.57;;;195.17;;
9322;SDS011;4700;48.822;9.270;2023-08-06T07:26:03;381.53;;;330.77;;
9322;SDS011;4700;48.822;9.270;2023-08-06T07:28:49;387.00;;;344.17;;
9322;SDS011;4700;48.822;9.270;2023-08-06T07:31:35;382.33;;;326.87;;
9322;SDS011;4700;48.822;9.270;2023-08-06T07:34:21;378.43;;;324.50;;
9322;SDS011;4700;48.822;9.270;2023-08-06T07:37:10;377.60;;;322.47;;
9322;SDS011;4700;48.822;9.270;2023-08-06T07:39:58;374.67;;;316.63;;
9322;SDS011;4700;48.822;9.270;2023-08-06T07:42:44;377.40;;;321.60;;
9322;SDS011;4700;48.822;9.270;2023-08-06T07:45:32;379.40;;;331.10;;
9322;SDS011;4700;48.822;9.270;2023-08-06T07:48:18;375.77;;;319.10;;
9322;SDS011;4700;48.822;9.270;2023-08-06T07:51:04;376.40;;;314.53;;
9322;SDS011;4700;48.822;9.270;2023-08-06T07:53:50;373.07;;;314.37;;
9322;SDS011;4700;48.822;9.270;2023-08-06T07:56:37;375.43;;;315.63;;
9322;SDS011;4700;48.822;9.270;2023-08-06T07:59:23;382.23;;;330.03;;
9322;SDS011;4700;48.822;9.270;2023-08-06T08:02:09;380.43;;;322.27;;
9322;SDS011;4700;48.822;9.270;2023-08-06T08:04:55;382.50;;;328.80;;
9322;SDS011;4700;48.822;9.270;2023-08-06T08:07:43;380.53;;;324.77;;
9322;SDS011;4700;48.822;9.270;2023-08-06T08:10:31;382.47;;;337.33;;
9322;SDS011;4700;48.822;9.270;2023-08-06T08:13:18;385.23;;;336.27;;
9322;SDS011;4700;48.822;9.270;2023-08-06T08:16:03;383.43;;;331.37;;
9322;SDS011;4700;48.822;9.270;2023-08-06T08:18:50;384.43;;;333.20;;
9322;SDS011;4700;48.822;9.270;2023-08-06T08:21:36;393.87;;;346.67;;
9322;SDS011;4700;48.822;9.270;2023-08-06T08:24:22;387.87;;;337.70;;
9322;SDS011;4700;48.822;9.270;2023-08-06T08:27:08;406.87;;;363.07;;
9322;SDS011;4700;48.822;9.270;2023-08-06T08:29:55;400.73;;;356.93;;
9322;SDS011;4700;48.822;9.270;2023-08-06T08:32:41;405.40;;;361.43;;
9322;SDS011;4700;48.822;9.270;2023-08-06T08:35:27;404.43;;;360.33;;
9322;SDS011;4700;48.822;9.270;2023-08-06T08:38:13;408.23;;;363.83;;
9322;SDS011;4700;48.822;9.270;2023-08-06T08:40:58;424.97;;;379.93;;
9322;SDS011;4700;48.822;9.270;2023-08-06T08:43:44;405.67;;;361.27;;
9322;SDS011;4700;48.822;9.270;2023-08-06T08:46:32;402.37;;;333.50;;
9322;SDS011;4700;48.822;9.270;2023-08-06T08:49:20;414.00;;;369.30;;
9322;SDS011;4700;48.822;9.270;2023-08-06T08:52:04;397.60;;;341.57;;
9322;SDS011;4700;48.822;9.270;2023-08-06T08:54:51;401.33;;;329.00;;
9322;SDS011;4700;48.822;9.270;2023-08-06T08:57:37;394.20;;;307.50;;
9322;SDS011;4700;48.822;9.270;2023-08-06T09:00:23;403.00;;;320.20;;
9322;SDS011;4700;48.822;9.270;2023-08-06T09:03:11;401.77;;;323.20;;
9322;SDS011;4700;48.822;9.270;2023-08-06T09:05:57;394.93;;;317.30;;
9322;SDS011;4700;48.822;9.270;2023-08-06T09:08:46;408.27;;;325.23;;
9322;SDS011;4700;48.822;9.270;2023-08-06T09:11:41;398.43;;;326.63;;
9322;SDS011;4700;48.822;9.270;2023-08-06T09:14:29;397.27;;;348.23;;
9322;SDS011;4700;48.822;9.270;2023-08-06T09:17:22;404.07;;;359.73;;
9322;SDS011;4700;48.822;9.270;2023-08-06T09:20:11;404.40;;;353.90;;
9322;SDS011;4700;48.822;9.270;2023-08-06T09:23:02;416.83;;;372.27;;
9322;SDS011;4700;48.822;9.270;2023-08-06T09:25:52;397.87;;;350.47;;
9322;SDS011;4700;48.822;9.270;2023-08-06T09:28:38;412.83;;;368.03;;
9322;SDS011;4700;48.822;9.270;2023-08-06T09:31:32;396.40;;;349.37;;
9322;SDS011;4700;48.822;9.270;2023-08-06T09:34:19;397.53;;;348.70;;
9322;SDS011;4700;48.822;9.270;2023-08-06T09:37:08;395.00;;;332.73;;
9322;SDS011;4700;48.822;9.270;2023-08-06T09:39:54;396.67;;;349.43;;
9322;SDS011;4700;48.822;9.270;2023-08-06T09:42:42;395.33;;;346.23;;
9322;SDS011;4700;48.822;9.270;2023-08-06T09:45:30;411.70;;;367.37;;
9322;SDS011;4700;48.822;9.270;2023-08-06T09:48:17;395.27;;;348.60;;
9322;SDS011;4700;48.822;9.270;2023-08-06T09:51:03;403.97;;;360.17;;
9322;SDS011;4700;48.822;9.270;2023-08-06T09:53:55;398.97;;;354.93;;
9322;SDS011;4700;48.822;9.270;2023-08-06T09:56:41;406.00;;;361.63;;
9322;SDS011;4700;48.822;9.270;2023-08-06T09:59:27;402.80;;;358.93;;
9322;SDS011;4700;48.822;9.270;2023-08-06T10:02:14;390.00;;;343.17;;
9322;SDS011;4700;48.822;9.270;2023-08-06T10:05:00;399.93;;;351.60;;
9322;SDS011;4700;48.822;9.270;2023-08-06T10:07:46;413.53;;;369.33;;
9322;SDS011;4700;48.822;9.270;2023-08-06T10:10:37;405.83;;;361.27;;
9322;SDS011;4700;48.822;9.270;2023-08-06T10:13:23;403.20;;;359.27;;
9322;SDS011;4700;48.822;9.270;2023-08-06T10:16:10;395.87;;;352.23;;
9322;SDS011;4700;48.822;9.270;2023-08-06T10:18:56;400.53;;;357.03;;
9322;SDS011;4700;48.822;9.270;2023-08-06T10:24:56;407.20;;;363.07;;
9322;SDS011;4700;48.822;9.270;2023-08-06T10:27:54;394.00;;;348.63;;
9322;SDS011;4700;48.822;9.270;2023-08-06T10:30:44;407.97;;;364.20;;
9322;SDS011;4700;48.822;9.270;2023-08-06T10:33:40;415.40;;;371.00;;
9322;SDS011;4700;48.822;9.270;2023-08-06T10:36:26;404.10;;;360.13;;
9322;SDS011;4700;48.822;9.270;2023-08-06T10:39:13;418.90;;;374.13;;
9322;SDS011;4700;48.822;9.270;2023-08-06T10:42:01;410.97;;;366.67;;
9322;SDS011;4700;48.822;9.270;2023-08-06T10:47:49;404.47;;;359.90;;
9322;SDS011;4700;48.822;9.270;2023-08-06T10:50:34;399.40;;;355.57;;
9322;SDS011;4700;48.822;9.270;2023-08-06T10:53:20;406.10;;;361.83;;
9322;SDS011;4700;48.822;9.270;2023-08-06T10:56:11;397.37;;;353.70;;
9322;SDS011;4700;48.822;9.270;2023-08-06T10:58:58;393.63;;;348.47;;
9322;SDS011;4700;48.822;9.270;2023-08-06T11:01:44;390.90;;;343.10;;
9322;SDS011;4700;48.822;9.270;2023-08-06T11:04:31;395.90;;;352.30;;
9322;SDS011;4700;48.822;9.270;2023-08-06T11:07:17;399.00;;;355.20;;
9322;SDS011;4700;48.822;9.270;2023-08-06T11:10:05;387.33;;;336.17;;
9322;SDS011;4700;48.822;9.270;2023-08-06T11:12:53;398.60;;;354.77;;
9322;SDS011;4700;48.822;9.270;2023-08-06T11:15:38;400.40;;;356.93;;
9322;SDS011;4700;48.822;9.270;2023-08-06T11:18:24;405.23;;;361.53;;
9322;SDS011;4700;48.822;9.270;2023-08-06T11:21:11;387.47;;;336.60;;
9322;SDS011;4700;48.822;9.270;2023-08-06T11:23:57;385.20;;;340.13;;
9322;SDS011;4700;48.822;9.270;2023-08-06T11:26:45;387.87;;;343.77;;
9322;SDS011;4700;48.822;9.270;2023-08-06T11:29:31;402.63;;;344.80;;
9322;SDS011;4700;48.822;9.270;2023-08-06T11:32:22;383.93;;;337.63;;
9322;SDS011;4700;48.822;9.270;2023-08-06T11:35:11;405.93;;;362.07;;
9322;SDS011;4700;48.822;9.270;2023-08-06T11:37:59;389.60;;;346.23;;
9322;SDS011;4700;48.822;9.270;2023-08-06T11:40:49;385.67;;;342.47;;
9322;SDS011;4700;48.822;9.270;2023-08-06T11:43:35;391.83;;;348.87;;
9322;SDS011;4700;48.822;9.270;2023-08-06T11:46:21;389.80;;;345.80;;
9322;SDS011;4700;48.822;9.270;2023-08-06T11:49:08;397.10;;;354.07;;
9322;SDS011;4700;48.822;9.270;2023-08-06T11:51:54;395.50;;;351.87;;
9322;SDS011;4700;48.822;9.270;2023-08-06T11:54:41;390.73;;;346.83;;
9322;SDS011;4700;48.822;9.270;2023-08-06T11:57:28;392.30;;;348.70;;
9322;SDS011;4700;48.822;9.270;2023-08-06T12:00:16;409.97;;;366.17;;
9322;SDS011;4700;48.822;9.270;2023-08-06T12:03:04;386.37;;;313.93;;
9322;SDS011;4700;48.822;9.270;2023-08-06T12:05:53;384.80;;;339.80;;
9322;SDS011;4700;48.822;9.270;2023-08-06T12:08:39;398.33;;;355.07;;
9322;SDS011;4700;48.822;9.270;2023-08-06T12:11:27;390.33;;;347.53;;
9322;SDS011;4700;48.822;9.270;2023-08-06T12:14:13;386.90;;;336.67;;
9322;SDS011;4700;48.822;9.270;2023-08-06T12:16:58;383.53;;;338.50;;
9322;SDS011;4700;48.822;9.270;2023-08-06T12:19:44;402.17;;;359.00;;
9322;SDS011;4700;48.822;9.270;2023-08-06T12:22:31;362.77;;;227.95;;
9322;SDS011;4700;48.822;9.270;2023-08-06T12:25:19;390.90;;;348.20;;
9322;SDS011;4700;48.822;9.270;2023-08-06T12:28:06;389.27;;;346.90;;
9322;SDS011;4700;48.822;9.270;2023-08-06T12:30:53;382.43;;;331.33;;
9322;SDS011;4700;48.822;9.270;2023-08-06T12:33:39;383.80;;;341.30;;
9322;SDS011;4700;48.822;9.270;2023-08-06T12:36:25;380.50;;;332.33;;
9322;SDS011;4700;48.822;9.270;2023-08-06T12:39:11;393.37;;;351.07;;
9322;SDS011;4700;48.822;9.270;2023-08-06T12:41:57;381.73;;;338.93;;
9322;SDS011;4700;48.822;9.270;2023-08-06T12:44:44;390.10;;;347.57;;
9322;SDS011;4700;48.822;9.270;2023-08-06T12:47:30;385.67;;;343.07;;
9322;SDS011;4700;48.822;9.270;2023-08-06T12:50:18;407.80;;;364.93;;
9322;SDS011;4700;48.822;9.270;2023-08-06T12:53:04;382.90;;;339.23;;
9322;SDS011;4700;48.822;9.270;2023-08-06T12:55:50;391.50;;;348.83;;
9322;SDS011;4700;48.822;9.270;2023-08-06T12:58:37;396.17;;;353.27;;
9322;SDS011;4700;48.822;9.270;2023-08-06T13:01:25;383.10;;;338.50;;
9322;SDS011;4700;48.822;9.270;2023-08-06T13:04:11;381.00;;;332.57;;
9322;SDS011;4700;48.822;9.270;2023-08-06T13:06:57;385.43;;;342.93;;
9322;SDS011;4700;48.822;9.270;2023-08-06T13:09:45;392.50;;;349.47;;
9322;SDS011;4700;48.822;9.270;2023-08-06T13:12:34;384.63;;;337.80;;
9322;SDS011;4700;48.822;9.270;2023-08-06T13:15:20;384.80;;;339.10;;
9322;SDS011;4700;48.822;9.270;2023-08-06T13:18:06;385.80;;;343.23;;
9322;SDS011;4700;48.822;9.270;2023-08-06T13:20:52;399.17;;;355.63;;
9322;SDS011;4700;48.822;9.270;2023-08-06T13:23:38;383.10;;;334.03;;
9322;SDS011;4700;48.822;9.270;2023-08-06T13:26:25;378.27;;;304.63;;
9322;SDS011;4700;48.822;9.270;2023-08-06T13:29:13;403.63;;;359.83;;
9322;SDS011;4700;48.822;9.270;2023-08-06T13:31:59;399.17;;;355.67;;
9322;SDS011;4700;48.822;9.270;2023-08-06T13:34:45;416.03;;;371.33;;
9322;SDS011;4700;48.822;9.270;2023-08-06T13:37:30;404.83;;;361.23;;
9322;SDS011;4700;48.822;9.270;2023-08-06T13:40:16;394.23;;;350.70;;
9322;SDS011;4700;48.822;9.270;2023-08-06T13:43:03;412.87;;;368.87;;
9322;SDS011;4700;48.822;9.270;2023-08-06T13:45:48;392.07;;;348.60;;
9322;SDS011;4700;48.822;9.270;2023-08-06T13:48:34;391.77;;;347.10;;
9322;SDS011;4700;48.822;9.270;2023-08-06T13:51:20;392.80;;;348.67;;
9322;SDS011;4700;48.822;9.270;2023-08-06T13:54:07;389.67;;;346.17;;
9322;SDS011;4700;48.822;9.270;2023-08-06T13:56:53;389.33;;;340.83;;
9322;SDS011;4700;48.822;9.270;2023-08-06T13:59:40;391.47;;;342.40;;
9322;SDS011;4700;48.822;9.270;2023-08-06T14:02:27;392.23;;;339.67;;
9322;SDS011;4700;48.822;9.270;2023-08-06T14:05:13;392.13;;;348.73;;
9322;SDS011;4700;48.822;9.270;2023-08-06T14:07:59;395.70;;;352.20;;
9322;SDS011;4700;48.822;9.270;2023-08-06T14:10:45;389.37;;;344.37;;
9322;SDS011;4700;48.822;9.270;2023-08-06T14:13:30;397.00;;;353.33;;
9322;SDS011;4700;48.822;9.270;2023-08-06T14:16:17;395.43;;;351.83;;
9322;SDS011;4700;48.822;9.270;2023-08-06T14:19:03;391.47;;;345.03;;
9322;SDS011;4700;48.822;9.270;2023-08-06T14:21:49;390.80;;;347.57;;
9322;SDS011;4700;48.822;9.270;2023-08-06T14:24:35;387.97;;;345.10;;
9322;SDS011;4700;48.822;9.270;2023-08-06T14:27:20;387.40;;;341.07;;
9322;SDS011;4700;48.822;9.270;2023-08-06T14:30:06;395.17;;;351.57;;
9322;SDS011;4700;48.822;9.270;2023-08-06T14:32:54;388.17;;;345.03;;
9322;SDS011;4700;48.822;9.270;2023-08-06T14:35:40;387.07;;;341.17;;
9322;SDS011;4700;48.822;9.270;2023-08-06T14:38:25;397.10;;;353.83;;
9322;SDS011;4700;48.822;9.270;2023-08-06T14:41:11;386.87;;;341.87;;
9322;SDS011;4700;48.822;9.270;2023-08-06T14:43:57;388.53;;;338.83;;
9322;SDS011;4700;48.822;9.270;2023-08-06T14:46:42;375.73;;;295.80;;
9322;SDS011;4700;48.822;9.270;2023-08-06T14:49:30;410.33;;;366.47;;
9322;SDS011;4700;48.822;9.270;2023-08-06T14:52:16;380.70;;;300.77;;
9322;SDS011;4700;48.822;9.270;2023-08-06T14:55:02;403.67;;;360.20;;
9322;SDS011;4700;48.822;9.270;2023-08-06T14:57:48;399.77;;;356.00;;
9322;SDS011;4700;48.822;9.270;2023-08-06T15:00:34;414.67;;;370.97;;
9322;SDS011;4700;48.822;9.270;2023-08-06T15:03:20;405.10;;;361.27;;
9322;SDS011;4700;48.822;9.270;2023-08-06T15:06:07;386.67;;;335.90;;
9322;SDS011;4700;48.822;9.270;2023-08-06T15:08:53;392.30;;;348.87;;
9322;SDS011;4700;48.822;9.270;2023-08-06T15:11:42;391.87;;;345.03;;
9322;SDS011;4700;48.822;9.270;2023-08-06T15:14:27;389.97;;;337.73;;
9322;SDS011;4700;48.822;9.270;2023-08-06T15:17:13;370.13;;;287.93;;
9322;SDS011;4700;48.822;9.270;2023-08-06T15:19:59;396.87;;;353.77;;
9322;SDS011;4700;48.822;9.270;2023-08-06T15:22:46;385.37;;;327.37;;
9322;SDS011;4700;48.822;9.270;2023-08-06T15:25:32;383.00;;;338.00;;
9322;SDS011;4700;48.822;9.270;2023-08-06T15:28:17;393.60;;;350.80;;
9322;SDS011;4700;48.822;9.270;2023-08-06T15:31:03;387.93;;;345.03;;
9322;SDS011;4700;48.822;9.270;2023-08-06T15:33:51;383.83;;;331.57;;
9322;SDS011;4700;48.822;9.270;2023-08-06T15:36:37;390.17;;;347.37;;
9322;SDS011;4700;48.822;9.270;2023-08-06T15:39:24;383.07;;;335.03;;
9322;SDS011;4700;48.822;9.270;2023-08-06T15:42:13;383.83;;;330.97;;
9322;SDS011;4700;48.822;9.270;2023-08-06T15:44:59;390.93;;;347.77;;
9322;SDS011;4700;48.822;9.270;2023-08-06T15:47:47;385.03;;;322.97;;
9322;SDS011;4700;48.822;9.270;2023-08-06T15:50:33;387.87;;;340.67;;
9322;SDS011;4700;48.822;9.270;2023-08-06T15:53:18;388.40;;;333.27;;
9322;SDS011;4700;48.822;9.270;2023-08-06T15:56:06;387.37;;;329.87;;
9322;SDS011;4700;48.822;9.270;2023-08-06T15:58:51;388.23;;;332.63;;
9322;SDS011;4700;48.822;9.270;2023-08-06T16:01:38;389.07;;;334.93;;
9322;SDS011;4700;48.822;9.270;2023-08-06T16:04:23;385.30;;;328.03;;
9322;SDS011;4700;48.822;9.270;2023-08-06T16:07:10;386.27;;;321.90;;
9322;SDS011;4700;48.822;9.270;2023-08-06T16:09:56;391.40;;;332.07;;
9322;SDS011;4700;48.822;9.270;2023-08-06T16:12:43;388.77;;;329.87;;
9322;SDS011;4700;48.822;9.270;2023-08-06T16:15:29;382.20;;;325.83;;
9322;SDS011;4700;48.822;9.270;2023-08-06T16:18:15;387.73;;;328.27;;
9322;SDS011;4700;48.822;9.270;2023-08-06T16:21:01;385.30;;;335.03;;
9322;SDS011;4700;48.822;9.270;2023-08-06T16:23:47;385.07;;;325.03;;
9322;SDS011;4700;48.822;9.270;2023-08-06T16:26:32;383.53;;;325.33;;
9322;SDS011;4700;48.822;9.270;2023-08-06T16:29:20;382.67;;;322.40;;
9322;SDS011;4700;48.822;9.270;2023-08-06T16:32:05;382.73;;;325.23;;
9322;SDS011;4700;48.822;9.270;2023-08-06T16:34:51;384.53;;;322.30;;
9322;SDS011;4700;48.822;9.270;2023-08-06T16:37:37;384.43;;;321.43;;
9322;SDS011;4700;48.822;9.270;2023-08-06T16:40:23;376.73;;;303.43;;
9322;SDS011;4700;48.822;9.270;2023-08-06T16:43:09;383.47;;;316.27;;
9322;SDS011;4700;48.822;9.270;2023-08-06T16:45:56;379.93;;;305.60;;
9322;SDS011;4700;48.822;9.270;2023-08-06T16:48:42;375.73;;;289.50;;
9322;SDS011;4700;48.822;9.270;2023-08-06T16:53:53;381.23;;;306.47;;
9322;SDS011;4700;48.822;9.270;2023-08-06T16:56:42;379.63;;;310.85;;
9322;SDS011;4700;48.822;9.270;2023-08-06T16:59:28;371.55;;;270.70;;
9322;SDS011;4700;48.822;9.270;2023-08-06T17:02:16;372.67;;;294.87;;
9322;SDS011;4700;48.822;9.270;2023-08-06T17:05:02;373.25;;;306.48;;
9322;SDS011;4700;48.822;9.270;2023-08-06T17:20:47;369.83;;;299.30;;
9322;SDS011;4700;48.822;9.270;2023-08-06T17:23:33;369.40;;;293.40;;
9322;SDS011;4700;48.822;9.270;2023-08-06T17:26:19;366.17;;;294.85;;
9322;SDS011;4700;48.822;9.270;2023-08-06T17:29:05;366.42;;;299.88;;
9322;SDS011;4700;48.822;9.270;2023-08-06T17:31:51;369.50;;;294.77;;
9322;SDS011;4700;48.822;9.270;2023-08-06T17:34:42;368.15;;;306.92;;
9322;SDS011;4700;48.822;9.270;2023-08-06T17:37:29;367.75;;;298.90;;
9322;SDS011;4700;48.822;9.270;2023-08-06T17:40:15;372.83;;;313.08;;
9322;SDS011;4700;48.822;9.270;2023-08-06T17:43:01;367.63;;;299.35;;
9322;SDS011;4700;48.822;9.270;2023-08-06T17:56:11;373.05;;;317.92;;
9322;SDS011;4700;48.822;9.270;2023-08-06T17:58:57;355.95;;;275.98;;
9322;SDS011;4700;48.822;9.270;2023-08-06T18:01:43;369.60;;;294.75;;
9322;SDS011;4700;48.822;9.270;2023-08-06T18:09:43;370.70;;;310.52;;
9322;SDS011;4700;48.822;9.270;2023-08-06T18:12:31;365.45;;;290.77;;
9322;SDS011;4700;48.822;9.270;2023-08-06T18:15:20;371.23;;;304.73;;
9322;SDS011;4700;48.822;9.270;2023-08-06T18:18:09;371.58;;;309.13;;
9322;SDS011;4700;48.822;9.270;2023-08-06T18:20:55;375.25;;;323.77;;
9322;SDS011;4700;48.822;9.270;2023-08-06T18:23:42;357.15;;;259.60;;
9322;SDS011;4700;48.822;9.270;2023-08-06T18:29:05;367.20;;;309.25;;
9322;SDS011;4700;48.822;9.270;2023-08-06T18:31:52;368.42;;;274.38;;
9322;SDS011;4700;48.822;9.270;2023-08-06T18:34:38;365.45;;;266.17;;
9322;SDS011;4700;48.822;9.270;2023-08-06T18:37:24;355.42;;;242.35;;
9322;SDS011;4700;48.822;9.270;2023-08-06T18:40:11;356.55;;;237.75;;
9322;SDS011;4700;48.822;9.270;2023-08-06T18:42:58;360.80;;;279.85;;
9322;SDS011;4700;48.822;9.270;2023-08-06T18:45:45;354.42;;;226.10;;
9322;SDS011;4700;48.822;9.270;2023-08-06T18:48:35;364.25;;;294.00;;
9322;SDS011;4700;48.822;9.270;2023-08-06T18:51:21;367.80;;;256.95;;
9322;SDS011;4700;48.822;9.270;2023-08-06T18:54:07;365.67;;;261.48;;
9322;SDS011;4700;48.822;9.270;2023-08-06T18:56:54;353.98;;;223.57;;
9322;SDS011;4700;48.822;9.270;2023-08-06T18:59:40;348.13;;;214.95;;
9322;SDS011;4700;48.822;9.270;2023-08-06T19:02:30;358.30;;;236.95;;
9322;SDS011;4700;48.822;9.270;2023-08-06T19:05:15;372.77;;;317.67;;
9322;SDS011;4700;48.822;9.270;2023-08-06T19:08:02;366.25;;;263.08;;
9322;SDS011;4700;48.822;9.270;2023-08-06T19:10:48;361.55;;;259.92;;
9322;SDS011;4700;48.822;9.270;2023-08-06T19:13:34;355.00;;;230.25;;
9322;SDS011;4700;48.822;9.270;2023-08-06T19:16:20;362.42;;;245.23;;
9322;SDS011;4700;48.822;9.270;2023-08-06T19:19:09;352.55;;;224.77;;
9322;SDS011;4700;48.822;9.270;2023-08-06T19:21:55;352.83;;;227.98;;
9322;SDS011;4700;48.822;9.270;2023-08-06T19:24:41;365.20;;;267.35;;
9322;SDS011;4700;48.822;9.270;2023-08-06T19:27:27;356.30;;;239.57;;
9322;SDS011;4700;48.822;9.270;2023-08-06T19:32:52;371.05;;;278.92;;
9322;SDS011;4700;48.822;9.270;2023-08-06T19:35:45;357.98;;;235.27;;
9322;SDS011;4700;48.822;9.270;2023-08-06T19:38:33;369.35;;;278.00;;
9322;SDS011;4700;48.822;9.270;2023-08-06T19:41:20;367.30;;;266.02;;
9322;SDS011;4700;48.822;9.270;2023-08-06T19:44:06;364.83;;;260.50;;
9322;SDS011;4700;48.822;9.270;2023-08-06T19:46:52;365.52;;;296.85;;
9322;SDS011;4700;48.822;9.270;2023-08-06T19:49:43;371.05;;;323.55;;
9322;SDS011;4700;48.822;9.270;2023-08-06T19:52:31;364.33;;;290.17;;
9322;SDS011;4700;48.822;9.270;2023-08-06T19:55:17;363.35;;;283.65;;
9322;SDS011;4700;48.822;9.270;2023-08-06T19:58:05;365.92;;;292.40;;
9322;SDS011;4700;48.822;9.270;2023-08-06T20:00:52;367.15;;;295.83;;
9322;SDS011;4700;48.822;9.270;2023-08-06T20:03:38;367.33;;;285.83;;
9322;SDS011;4700;48.822;9.270;2023-08-06T20:06:27;361.45;;;267.38;;
9322;SDS011;4700;48.822;9.270;2023-08-06T20:09:17;386.73;;;344.88;;
9322;SDS011;4700;48.822;9.270;2023-08-06T20:12:04;404.30;;;348.88;;
9322;SDS011;4700;48.822;9.270;2023-08-06T20:14:50;360.77;;;278.17;;
9322;SDS011;4700;48.822;9.270;2023-08-06T20:17:36;360.30;;;263.70;;
9322;SDS011;4700;48.822;9.270;2023-08-06T20:20:22;360.65;;;260.75;;
9322;SDS011;4700;48.822;9.270;2023-08-06T20:23:07;361.92;;;266.52;;
9322;SDS011;4700;48.822;9.270;2023-08-06T20:25:55;359.50;;;262.70;;
9322;SDS011;4700;48.822;9.270;2023-08-06T20:28:41;359.75;;;267.38;;
9322;SDS011;4700;48.822;9.270;2023-08-06T20:31:27;359.50;;;266.30;;
9322;SDS011;4700;48.822;9.270;2023-08-06T20:36:49;350.33;;;204.85;;
9322;SDS011;4700;48.822;9.270;2023-08-06T20:39:38;344.60;;;186.45;;
9322;SDS011;4700;48.822;9.270;2023-08-06T20:42:25;364.67;;;269.83;;
9322;SDS011;4700;48.822;9.270;2023-08-06T20:45:11;351.00;;;207.40;;
9322;SDS011;4700;48.822;9.270;2023-08-06T20:47:57;343.35;;;185.18;;
9322;SDS011;4700;48.822;9.270;2023-08-06T20:50:43;333.05;;;154.48;;
9322;SDS011;4700;48.822;9.270;2023-08-06T20:53:29;336.88;;;167.25;;
9322;SDS011;4700;48.822;9.270;2023-08-06T20:56:15;339.77;;;172.27;;
9322;SDS011;4700;48.822;9.270;2023-08-06T20:59:03;333.38;;;162.23;;
9322;SDS011;4700;48.822;9.270;2023-08-06T21:04:28;349.50;;;229.15;;
9322;SDS011;4700;48.822;9.270;2023-08-06T21:07:14;355.63;;;240.00;;
9322;SDS011;4700;48.822;9.270;2023-08-06T21:10:00;348.08;;;216.38;;
9322;SDS011;4700;48.822;9.270;2023-08-06T21:12:51;368.35;;;310.63;;
9322;SDS011;4700;48.822;9.270;2023-08-06T21:15:38;362.35;;;279.42;;
9322;SDS011;4700;48.822;9.270;2023-08-06T21:21:00;386.02;;;344.80;;
9322;SDS011;4700;48.822;9.270;2023-08-06T21:23:47;363.92;;;309.15;;
9322;SDS011;4700;48.822;9.270;2023-08-06T21:29:09;475.25;;;336.42;;
9322;SDS011;4700;48.822;9.270;2023-08-06T21:50:06;371.57;;;329.13;;
9322;SDS011;4700;48.822;9.270;2023-08-06T21:52:53;364.13;;;305.80;;
9322;SDS011;4700;48.822;9.270;2023-08-06T22:00:53;352.25;;;246.68;;
9322;SDS011;4700;48.822;9.270;2023-08-06T22:03:42;364.52;;;306.65;;
9322;SDS011;4700;48.822;9.270;2023-08-06T22:06:31;362.83;;;291.80;;
9322;SDS011;4700;48.822;9.270;2023-08-06T22:14:29;370.33;;;316.00;;
9322;SDS011;4700;48.822;9.270;2023-08-06T22:17:15;352.65;;;262.48;;
9322;SDS011;4700;48.822;9.270;2023-08-06T22:20:01;350.15;;;256.35;;
9322;SDS011;4700;48.822;9.270;2023-08-06T22:22:49;354.02;;;258.63;;
9322;SDS011;4700;48.822;9.270;2023-08-06T22:30:47;360.80;;;274.50;;
9322;SDS011;4700;48.822;9.270;2023-08-06T22:33:33;357.80;;;279.20;;
9322;SDS011;4700;48.822;9.270;2023-08-06T22:36:19;357.55;;;281.63;;
9322;SDS011;4700;48.822;9.270;2023-08-06T22:41:42;364.42;;;303.58;;